Time;durP1;ratioP1;P1;durP2;ratioP2;P2;SDS_P1;SDS_P2;PMS_P1;PMS_P2;Temp;Humidity;BMP_temperature;BMP_pressure;BME280_temperature;BME280_humidity;BME280_pressure;Samples;Min_cycle;Max_cycle;Signal;HPM_P1;HPM_P2
2022/08/27 00:00:41;;;;;;;21.52;19.23;;;;;;;22.49;64.32;97083.47;4968152;28;20253;-75
2022/08/27 00:03:06;;;;;;;22.48;18.33;;;;;;;22.53;63.99;97078.28;4984488;28;20190;-75
2022/08/27 00:05:31;;;;;;;22.88;18.50;;;;;;;22.54;64.15;97075.31;4957688;28;20211;-75
2022/08/27 00:07:57;;;;;;;23.85;19.48;;;;;;;22.54;64.06;97080.63;4987651;28;20252;-75
2022/08/27 00:10:25;;;;;;;24.70;17.73;;;;;;;22.53;64.16;97080.94;4968827;28;20105;-75
2022/08/27 00:13:00;;;;;;;20.58;17.48;;;;;;;22.46;64.35;97084.09;4996268;28;20582;-76
2022/08/27 00:15:26;;;;;;;;;;;;;;;22.37;64.73;97086.06;4963729;28;20761;-75
2022/08/27 00:17:51;;;;;;;19.38;16.20;;;;;;;22.68;64.25;97084.88;4980565;28;20176;-75
2022/08/27 00:20:19;;;;;;;20.02;17.30;;;;;;;22.65;63.97;97083.63;4979413;28;20104;-76
2022/08/27 00:22:44;;;;;;;21.58;19.27;;;;;;;22.66;64.44;97085.19;5005177;28;20234;-75
2022/08/27 00:25:10;;;;;;;23.73;18.67;;;;;;;22.65;64.45;97082.88;4984274;28;20553;-75
2022/08/27 00:27:36;;;;;;;21.85;19.30;;;;;;;22.62;64.87;97087.72;4986832;28;20248;-75
2022/08/27 00:30:04;;;;;;;20.20;18.05;;;;;;;22.53;64.31;97084.34;4972033;28;20202;-75
2022/08/27 00:32:30;;;;;;;21.60;18.80;;;;;;;22.55;64.30;97082.19;4969834;28;20343;-75
2022/08/27 00:34:55;;;;;;;21.65;18.40;;;;;;;22.61;64.69;97080.09;4936280;28;20293;-76
2022/08/27 00:37:20;;;;;;;22.10;18.25;;;;;;;22.62;64.56;97081.66;4967554;28;20360;-74
2022/08/27 00:39:46;;;;;;;20.75;18.55;;;;;;;22.65;64.56;97072.25;5006536;28;20175;-75
2022/08/27 00:42:11;;;;;;;19.98;17.17;;;;;;;22.68;64.42;97071.59;4966728;28;20237;-75
2022/08/27 00:44:38;;;;;;;20.00;16.40;;;;;;;22.69;64.06;97076.59;4979029;28;20210;-75
2022/08/27 00:47:10;;;;;;;19.90;16.88;;;;;;;22.62;63.87;97082.41;4975925;28;20158;-75
2022/08/27 00:49:43;;;;;;;20.20;17.98;;;;;;;22.57;63.86;97073.91;4982449;28;20274;-75
2022/08/27 00:52:34;;;;;;;21.17;18.35;;;;;;;22.57;64.48;97073.91;4982254;28;20194;-75
2022/08/27 00:55:17;;;;;;;22.63;17.58;;;;;;;22.45;64.79;97082.56;4968515;28;20374;-76
2022/08/27 00:57:43;;;;;;;20.83;18.27;;;;;;;22.57;64.53;97079.19;4977052;28;20681;-75
2022/08/27 01:00:13;;;;;;;18.85;16.77;;;;;;;22.51;64.14;97080.50;4980492;28;20184;-75
2022/08/27 01:02:46;;;;;;;22.83;17.38;;;;;;;22.41;64.47;97073.69;4972915;28;20234;-75
2022/08/27 01:05:15;;;;;;;20.50;16.67;;;;;;;22.53;64.10;97075.63;4963249;28;20191;-75
2022/08/27 01:07:42;;;;;;;20.17;16.27;;;;;;;22.57;63.73;97079.19;4970149;28;20279;-75
2022/08/27 01:10:11;;;;;;;16.40;14.68;;;;;;;22.59;63.49;97074.34;4953164;28;20141;-75
2022/08/27 01:12:37;;;;;;;19.15;16.42;;;;;;;22.64;63.66;97076.78;4985279;28;20222;-75
2022/08/27 01:15:06;;;;;;;18.60;16.13;;;;;;;22.58;63.38;97078.09;4989543;28;20254;-76
2022/08/27 01:17:32;;;;;;;16.48;14.43;;;;;;;22.68;63.20;97071.59;4969483;28;20190;-75
2022/08/27 01:19:59;;;;;;;16.92;15.02;;;;;;;22.67;62.91;97062.09;4985752;28;20104;-75
2022/08/27 01:22:50;;;;;;;20.20;16.65;;;;;;;22.49;63.76;97069.44;5002873;28;20278;-75
2022/08/27 01:25:17;;;;;;;18.02;14.63;;;;;;;22.64;63.22;97063.53;4984641;28;20282;-75
2022/08/27 01:27:44;;;;;;;17.42;15.45;;;;;;;22.65;63.31;97067.72;4974963;28;20374;-76
2022/08/27 01:30:12;;;;;;;21.45;16.27;;;;;;;22.58;63.35;97062.94;4972454;28;20210;-75
2022/08/27 01:32:37;;;;;;;18.25;15.20;;;;;;;22.67;63.60;97072.69;4969565;28;20651;-75
2022/08/27 01:35:06;;;;;;;16.35;14.57;;;;;;;22.58;63.59;97065.59;4985846;28;20358;-75
2022/08/27 01:37:33;;;;;;;19.10;16.35;;;;;;;22.56;63.95;97067.78;4966923;28;20215;-76
2022/08/27 01:39:58;;;;;;;18.90;16.40;;;;;;;22.56;63.96;97061.72;4967871;28;20194;-76
2022/08/27 01:42:29;;;;;;;19.13;16.50;;;;;;;22.43;64.48;97068.81;4982212;28;20199;-76
2022/08/27 01:45:07;;;;;;;17.45;14.93;;;;;;;22.45;63.88;97077.25;4984853;28;20263;-75
2022/08/27 01:47:33;;;;;;;18.33;15.57;;;;;;;22.60;63.75;97073.22;4966172;28;20142;-76
2022/08/27 01:49:59;;;;;;;18.65;16.33;;;;;;;22.62;63.72;97071.81;4981408;28;20295;-75
2022/08/27 01:52:27;;;;;;;16.90;14.85;;;;;;;22.56;63.72;97073.09;4968955;28;20723;-75
2022/08/27 01:54:52;;;;;;;18.38;15.98;;;;;;;22.54;63.88;97064.69;4978811;28;20252;-76
2022/08/27 01:57:19;;;;;;;19.05;16.77;;;;;;;22.49;64.14;97077.38;4956700;28;20363;-75
2022/08/27 01:59:44;;;;;;;20.63;17.40;;;;;;;22.43;64.73;97074.13;4965355;28;20175;-75
2022/08/27 02:02:11;;;;;;;19.42;17.02;;;;;;;22.35;64.86;97067.03;5002902;28;20644;-75
2022/08/27 02:04:37;;;;;;;22.75;19.25;;;;;;;22.35;64.77;97065.16;4977834;28;20268;-75
2022/08/27 02:07:03;;;;;;;22.60;18.25;;;;;;;22.25;65.35;97062.84;4976099;28;20455;-75
2022/08/27 02:09:30;;;;;;;21.00;18.25;;;;;;;22.31;65.12;97066.13;4982876;28;20187;-75
2022/08/27 02:11:56;;;;;;;21.90;18.77;;;;;;;22.29;65.38;97073.63;4966118;28;20237;-75
2022/08/27 02:14:21;;;;;;;23.88;19.08;;;;;;;22.31;65.00;97076.72;4975658;28;20241;-75
2022/08/27 02:16:47;;;;;;;19.70;16.73;;;;;;;22.33;65.16;97063.91;4994131;28;20664;-75
2022/08/27 02:19:13;;;;;;;22.95;18.10;;;;;;;22.30;65.28;97069.88;4981268;28;20273;-76
2022/08/27 02:21:38;;;;;;;25.23;20.20;;;;;;;22.33;65.45;97063.91;5004926;28;20196;-76
2022/08/27 02:24:04;;;;;;;20.83;18.50;;;;;;;22.30;65.30;97060.03;4970647;28;20726;-75
2022/08/27 02:26:29;;;;;;;23.55;18.88;;;;;;;22.34;64.94;97060.16;4987135;28;20207;-76
2022/08/27 02:28:55;;;;;;;25.95;20.40;;;;;;;22.29;65.32;97065.66;4986559;28;20296;-76
2022/08/27 02:31:20;;;;;;;23.45;19.73;;;;;;;22.31;65.29;97066.91;4952417;28;20331;-76
2022/08/27 02:33:46;;;;;;;23.73;19.88;;;;;;;22.29;65.14;97065.66;4956410;28;20635;-76
2022/08/27 02:36:12;;;;;;;24.15;20.50;;;;;;;22.26;65.20;97070.50;4974370;28;20262;-76
2022/08/27 02:38:38;;;;;;;24.40;19.90;;;;;;;22.19;65.75;97070.25;4969843;28;20196;-75
2022/08/27 02:41:03;;;;;;;25.52;19.95;;;;;;;22.19;65.59;97066.78;4983651;28;20702;-75
2022/08/27 02:43:30;;;;;;;26.73;20.85;;;;;;;22.20;65.44;97069.13;4989493;28;20157;-75
2022/08/27 02:45:56;;;;;;;25.70;20.58;;;;;;;22.20;65.73;97066.47;4990448;28;20718;-76
2022/08/27 02:48:23;;;;;;;26.27;20.23;;;;;;;22.07;65.72;97062.19;4964292;28;20276;-76
2022/08/27 02:50:49;;;;;;;24.88;21.27;;;;;;;22.13;65.80;97063.56;4963363;28;20309;-76
2022/08/27 02:53:15;;;;;;;25.13;19.52;;;;;;;22.11;65.51;97060.47;4982585;28;20212;-75
2022/08/27 02:55:40;;;;;;;23.50;19.27;;;;;;;22.17;65.46;97061.03;4986913;28;20276;-75
2022/08/27 02:58:06;;;;;;;23.20;19.08;;;;;;;22.13;65.61;97057.50;4973045;28;20262;-75
2022/08/27 03:00:31;;;;;;;23.83;19.33;;;;;;;22.18;65.49;97055.41;4980802;28;20247;-75
2022/08/27 03:02:57;;;;;;;21.40;18.60;;;;;;;22.12;65.75;97062.00;4948066;28;20836;-75
2022/08/27 03:05:22;;;;;;;26.52;21.38;;;;;;;22.03;66.00;97056.75;4970499;28;20210;-76
2022/08/27 03:07:48;;;;;;;23.80;18.88;;;;;;;22.11;65.71;97055.16;4981709;28;20300;-75
2022/08/27 03:10:16;;;;;;;31.65;21.88;;;;;;;22.08;65.91;97053.13;4966175;28;20551;-75
2022/08/27 03:12:42;;;;;;;24.25;19.52;;;;;;;22.15;65.63;97052.63;4968523;28;20673;-75
2022/08/27 03:15:10;;;;;;;27.77;21.38;;;;;;;22.11;65.97;97057.03;4993491;28;20281;-77
2022/08/27 03:20:21;;;;;;;25.83;20.45;;;;;;;22.15;65.78;97064.00;4973951;28;20684;-76
2022/08/27 03:22:47;;;;;;;29.27;21.92;;;;;;;22.01;66.42;97063.50;4991655;28;20207;-76
2022/08/27 03:25:12;;;;;;;24.05;20.70;;;;;;;22.07;66.50;97062.19;4973882;28;20181;-76
2022/08/27 03:27:41;;;;;;;25.98;21.45;;;;;;;22.10;66.05;97066.84;4980844;28;20220;-75
2022/08/27 03:30:10;;;;;;;25.55;21.10;;;;;;;21.98;66.41;97061.47;4987012;28;20145;-76
2022/08/27 03:32:39;;;;;;;23.17;18.90;;;;;;;22.05;65.98;97056.44;4977124;28;20341;-76
2022/08/27 03:35:05;;;;;;;19.10;16.85;;;;;;;22.12;66.16;97062.00;4980765;28;20647;-76
2022/08/27 03:37:30;;;;;;;23.90;18.80;;;;;;;22.17;65.76;97059.16;4968619;28;20214;-76
2022/08/27 03:39:55;;;;;;;21.58;18.15;;;;;;;22.04;66.54;97057.53;4968124;28;20665;-76
2022/08/27 03:42:21;;;;;;;19.90;16.80;;;;;;;22.10;66.22;97056.25;4986450;28;20273;-75
2022/08/27 03:44:46;;;;;;;21.58;16.80;;;;;;;22.13;66.08;97055.59;4982129;28;20240;-75
2022/08/27 03:47:12;;;;;;;23.23;16.63;;;;;;;22.13;66.13;97052.19;4981708;28;20171;-75
2022/08/27 03:49:38;;;;;;;18.02;15.63;;;;;;;22.19;65.61;97051.69;4971410;28;20291;-76
2022/08/27 03:52:03;;;;;;;19.60;15.55;;;;;;;22.15;66.35;97056.06;4992498;28;20211;-76
2022/08/27 03:54:30;;;;;;;18.27;14.27;;;;;;;22.13;66.13;97052.94;4980012;28;20203;-76
2022/08/27 03:56:55;;;;;;;17.67;13.38;;;;;;;22.15;65.92;97050.75;4990326;28;20689;-75
2022/08/27 03:59:20;;;;;;;14.90;13.00;;;;;;;22.11;65.82;97038.47;4954137;28;20303;-75
2022/08/27 04:01:46;;;;;;;18.52;14.52;;;;;;;22.05;66.23;97033.38;4970099;28;20289;-76
2022/08/27 04:04:11;;;;;;;17.00;13.85;;;;;;;22.04;66.08;97029.16;4982384;28;20212;-76
2022/08/27 04:06:37;;;;;;;17.20;13.90;;;;;;;22.06;65.97;97028.84;4984824;28;20272;-76
2022/08/27 04:09:03;;;;;;;16.83;13.70;;;;;;;22.02;66.26;97028.69;4983610;28;20248;-76
2022/08/27 04:11:29;;;;;;;14.65;13.00;;;;;;;22.04;66.16;97031.03;4996473;28;20263;-76
2022/08/27 04:13:55;;;;;;;16.42;13.60;;;;;;;22.03;65.93;97024.94;4963910;28;20300;-75
2022/08/27 04:16:20;;;;;;;17.38;14.20;;;;;;;22.04;65.93;97023.84;4987283;28;20652;-76
2022/08/27 04:18:46;;;;;;;15.70;13.18;;;;;;;22.10;65.99;97034.25;4968815;28;20249;-75
2022/08/27 04:21:13;;;;;;;15.23;13.23;;;;;;;22.02;66.25;97027.91;4970644;28;20288;-75
2022/08/27 04:23:40;;;;;;;17.15;14.15;;;;;;;22.01;66.19;97029.03;4951600;28;20699;-76
2022/08/27 04:26:07;;;;;;;16.38;13.93;;;;;;;22.04;66.18;97026.50;4964807;28;20167;-75
2022/08/27 04:28:33;;;;;;;14.55;12.52;;;;;;;22.10;66.14;97031.63;4974875;28;20182;-75
2022/08/27 04:30:58;;;;;;;16.17;13.20;;;;;;;22.11;66.05;97033.94;4986777;28;20206;-75
2022/08/27 04:33:23;;;;;;;15.25;13.52;;;;;;;22.12;66.01;97037.38;4970606;28;20296;-76
2022/08/27 04:35:59;;;;;;;14.35;12.30;;;;;;;21.86;66.72;97036.41;4967603;28;20210;-75
2022/08/27 04:38:25;;;;;;;14.68;12.13;;;;;;;21.95;66.52;97041.69;4984149;28;20287;-75
2022/08/27 04:43:34;;;;;;;13.63;11.52;;;;;;;21.87;66.89;97032.69;4987338;28;20250;-75
2022/08/27 04:46:00;;;;;;;13.55;11.25;;;;;;;21.88;66.69;97041.41;4998491;28;20105;-75
2022/08/27 04:48:26;;;;;;;14.70;12.43;;;;;;;21.84;66.83;97043.16;4997229;28;20198;-75
2022/08/27 04:50:51;;;;;;;12.88;11.48;;;;;;;21.86;66.73;97040.97;4979965;28;20238;-76
2022/08/27 04:53:17;;;;;;;13.60;11.77;;;;;;;21.89;66.51;97040.31;4980243;28;20191;-76
2022/08/27 04:55:49;;;;;;;13.70;11.55;;;;;;;21.75;67.12;97043.22;4977724;28;20293;-75
2022/08/27 04:58:15;;;;;;;14.77;12.77;;;;;;;21.75;67.57;97045.84;4987181;28;20273;-75
2022/08/27 05:00:51;;;;;;;13.60;11.63;;;;;;;21.60;67.53;97049.06;4979165;28;20641;-75
2022/08/27 05:03:22;;;;;;;15.45;11.82;;;;;;;21.63;67.40;97041.25;4949850;28;20314;-75
2022/08/27 05:06:03;;;;;;;9.52;8.05;;;;;;;21.19;67.88;97042.47;4960276;28;20644;-75
2022/08/27 05:08:41;;;;;;;9.77;7.93;;;;;;;21.36;67.53;97044.28;4979150;28;20207;-76
2022/08/27 05:11:09;;;;;;;7.45;6.30;;;;;;;21.61;66.45;97051.38;4984006;28;20027;-76
2022/08/27 05:13:44;;;;;;;6.38;5.78;;;;;;;21.35;66.43;97056.75;4966093;28;20214;-75
2022/08/27 05:16:24;;;;;;;5.25;4.75;;;;;;;21.57;65.75;97070.88;4959913;28;20374;-75
2022/08/27 05:18:51;;;;;;;5.78;5.00;;;;;;;21.55;65.96;97059.84;4973298;28;20127;-75
2022/08/27 05:21:29;;;;;;;6.32;5.35;;;;;;;21.37;66.47;97061.72;4988078;28;20280;-76
2022/08/27 05:24:06;;;;;;;5.85;4.80;;;;;;;21.20;66.54;97057.25;4976234;28;20194;-75
2022/08/27 05:26:32;;;;;;;7.85;5.25;;;;;;;21.26;66.93;97062.06;4985594;28;20387;-76
2022/08/27 05:28:58;;;;;;;6.88;5.47;;;;;;;21.44;66.41;97062.03;4969615;28;20643;-76
2022/08/27 05:31:24;;;;;;;5.75;5.15;;;;;;;21.32;67.08;97065.34;4991095;28;20768;-75
2022/08/27 05:33:50;;;;;;;8.35;6.25;;;;;;;21.28;67.34;97077.66;4979736;28;20186;-76
2022/08/27 05:36:18;;;;;;;7.35;6.22;;;;;;;21.45;67.16;97077.59;4976483;28;20166;-76
2022/08/27 05:38:55;;;;;;;7.93;6.88;;;;;;;21.48;66.63;97079.63;4974547;28;20797;-76
2022/08/27 05:41:29;;;;;;;7.55;5.85;;;;;;;21.39;66.87;97070.91;4987884;28;20236;-76
2022/08/27 05:44:08;;;;;;;8.35;7.00;;;;;;;21.41;66.70;97079.31;4987079;28;20213;-76
2022/08/27 05:46:36;;;;;;;7.45;6.35;;;;;;;21.41;67.20;97068.72;4981772;28;20173;-75
2022/08/27 05:49:02;;;;;;;8.02;6.88;;;;;;;21.44;67.11;97077.94;4987540;28;20633;-75
2022/08/27 05:51:47;;;;;;;8.07;7.00;;;;;;;21.06;68.29;97083.94;4978963;28;20169;-76
2022/08/27 05:54:18;;;;;;;7.97;6.85;;;;;;;21.36;67.60;97076.06;4976240;28;20195;-75
2022/08/27 05:56:43;;;;;;;7.78;6.95;;;;;;;21.56;66.74;97067.47;4970879;28;20207;-75
2022/08/27 06:01:57;;;;;;;7.47;6.55;;;;;;;21.58;66.74;97078.50;4991183;28;20182;-75
2022/08/27 06:04:23;;;;;;;8.07;6.97;;;;;;;21.38;67.54;97079.19;4998767;28;20237;-75
2022/08/27 06:06:50;;;;;;;8.95;7.32;;;;;;;21.33;67.67;97078.28;4966708;28;20323;-75
2022/08/27 06:09:21;;;;;;;10.10;7.72;;;;;;;21.41;67.86;97074.03;5000239;28;20324;-76
2022/08/27 06:11:47;;;;;;;9.02;7.72;;;;;;;21.60;67.34;97070.25;4983943;28;20363;-76
2022/08/27 06:14:17;;;;;;;9.15;7.97;;;;;;;21.62;67.27;97073.34;4971962;28;20791;-76
2022/08/27 06:16:43;;;;;;;11.23;8.70;;;;;;;21.70;66.52;97065.34;4969717;28;20827;-75
2022/08/27 06:19:10;;;;;;;10.48;8.98;;;;;;;21.60;67.48;97064.94;4971418;28;20295;-76
2022/08/27 06:21:45;;;;;;;11.55;9.07;;;;;;;21.59;67.13;97069.47;4986825;28;20195;-75
2022/08/27 06:24:11;;;;;;;11.27;9.25;;;;;;;21.68;67.03;97074.75;4991187;28;20346;-75
2022/08/27 06:26:37;;;;;;;10.60;8.52;;;;;;;21.73;66.50;97079.84;4974757;28;20538;-75
2022/08/27 06:29:04;;;;;;;10.85;8.50;;;;;;;21.86;66.06;97080.72;4980050;28;20483;-75
2022/08/27 06:31:30;;;;;;;11.80;9.27;;;;;;;21.67;67.19;97083.78;5001918;28;20354;-75
2022/08/27 06:34:19;;;;;;;9.52;7.50;;;;;;;21.68;66.85;97088.00;4963859;28;20333;-75
2022/08/27 06:37:03;;;;;;;12.15;8.90;;;;;;;21.55;67.85;97089.75;4968828;28;20294;-75
2022/08/27 06:50:37;;;;;;;11.13;7.97;;;;;;;21.77;67.60;97088.72;4991689;28;20673;-75
2022/08/27 06:53:03;;;;;;;9.13;7.45;;;;;;;22.02;66.95;97086.22;5004075;28;20245;-75
2022/08/27 06:55:28;;;;;;;10.55;8.57;;;;;;;22.06;66.65;97087.94;4985994;28;20199;-76
2022/08/27 06:57:53;;;;;;;9.50;8.27;;;;;;;22.16;66.56;97083.38;4986231;28;20195;-75
2022/08/27 07:00:19;;;;;;;11.05;8.20;;;;;;;22.18;66.69;97089.88;5002640;28;20196;-77
2022/08/27 07:02:44;;;;;;;9.48;7.78;;;;;;;22.28;66.43;97093.28;4969230;28;20183;-75
2022/08/27 07:05:11;;;;;;;10.35;8.43;;;;;;;22.37;65.61;97096.66;5002529;28;20153;-76
2022/08/27 07:07:36;;;;;;;11.07;8.77;;;;;;;22.14;66.38;97096.16;4969080;28;20202;-75
2022/08/27 07:10:02;;;;;;;12.60;10.02;;;;;;;21.98;66.93;97096.69;5002915;28;20267;-75
2022/08/27 07:12:28;;;;;;;11.43;9.57;;;;;;;22.04;66.96;97097.31;4968707;28;20267;-76
2022/08/27 07:14:53;;;;;;;12.68;10.85;;;;;;;21.95;67.04;97096.56;4985742;28;20509;-75
2022/08/27 07:17:18;;;;;;;12.18;9.73;;;;;;;22.04;66.80;97095.44;4969446;28;20554;-76
2022/08/27 07:19:44;;;;;;;12.95;10.55;;;;;;;21.91;67.45;97100.97;5002454;28;20269;-74
2022/08/27 07:22:10;;;;;;;11.50;9.63;;;;;;;22.02;66.78;97102.13;4968997;28;20195;-75
2022/08/27 07:24:36;;;;;;;14.38;11.23;;;;;;;22.08;66.64;97100.88;4987490;28;20476;-76
2022/08/27 07:27:02;;;;;;;14.98;10.85;;;;;;;22.05;66.61;97104.16;4952658;28;20195;-76
2022/08/27 07:29:27;;;;;;;13.70;11.10;;;;;;;22.22;66.65;97101.41;4969030;28;20625;-75
2022/08/27 07:31:53;;;;;;;13.52;10.77;;;;;;;22.24;66.23;97104.53;4935881;28;20218;-75
2022/08/27 07:34:18;;;;;;;14.30;11.45;;;;;;;22.19;66.80;97107.38;4952682;28;20250;-76
2022/08/27 07:36:43;;;;;;;14.23;11.65;;;;;;;22.33;66.05;97109.00;4952183;28;20202;-76
2022/08/27 07:39:09;;;;;;;13.90;11.45;;;;;;;22.39;65.96;97110.38;4969011;28;20645;-76
2022/08/27 07:44:24;;;;;;;15.68;11.10;;;;;;;22.35;65.98;97115.56;4976826;28;20156;-76
2022/08/27 07:44:24;;;;;;;16.98;12.55;;;;;;;22.31;66.50;97109.34;4952001;28;20229;-75
2022/08/27 07:46:50;;;;;;;16.17;12.60;;;;;;;22.44;65.64;97115.50;5007081;28;20231;-75
2022/08/27 07:49:19;;;;;;;18.27;12.93;;;;;;;22.14;66.74;97112.84;4971781;28;20206;-75
2022/08/27 07:51:44;;;;;;;15.93;11.80;;;;;;;22.41;65.71;97113.47;4971673;28;20327;-75
2022/08/27 07:54:10;;;;;;;15.98;13.20;;;;;;;22.43;66.12;97113.94;4971897;28;20210;-75
2022/08/27 07:56:35;;;;;;;18.27;12.73;;;;;;;22.47;65.85;97120.16;5006911;28;20519;-76
2022/08/27 07:59:01;;;;;;;15.95;12.73;;;;;;;22.61;65.19;97123.31;4988995;28;20154;-75
2022/08/27 08:01:28;;;;;;;17.70;14.48;;;;;;;22.35;65.99;97125.41;4988677;28;20177;-75
2022/08/27 08:03:53;;;;;;;17.13;13.65;;;;;;;22.48;65.41;97124.34;4988001;28;20210;-75
2022/08/27 08:06:19;;;;;;;18.00;13.93;;;;;;;22.44;65.56;97126.88;4988477;28;20813;-76
2022/08/27 08:08:44;;;;;;;18.70;15.23;;;;;;;22.41;65.92;97127.53;4989392;28;20303;-75
2022/08/27 08:11:12;;;;;;;17.05;14.13;;;;;;;22.66;66.50;97130.31;4971171;28;20236;-75
2022/08/27 08:13:44;;;;;;;19.65;13.98;;;;;;;22.58;66.32;97129.28;4971168;28;20105;-75
2022/08/27 08:16:10;;;;;;;21.98;15.70;;;;;;;22.95;65.82;97126.03;4954824;28;20198;-75
2022/08/27 08:18:35;;;;;;;20.27;14.73;;;;;;;23.18;65.01;97134.41;4986943;28;20269;-75
2022/08/27 08:21:03;;;;;;;15.50;13.35;;;;;;;23.27;63.47;97127.16;5006140;28;20173;-76
2022/08/27 08:23:29;;;;;;;20.38;15.20;;;;;;;23.26;64.94;97135.47;4988040;28;20438;-75
2022/08/27 08:25:56;;;;;;;19.50;14.13;;;;;;;23.26;65.05;97130.91;4971530;28;20081;-75
2022/08/27 08:28:22;;;;;;;18.95;14.48;;;;;;;23.23;64.53;97133.44;4971503;28;20314;-75
2022/08/27 08:30:47;;;;;;;18.23;14.90;;;;;;;23.03;64.30;97138.47;5008280;28;20673;-75
2022/08/27 08:33:22;;;;;;;19.80;15.20;;;;;;;22.92;64.68;97138.06;4987402;28;20203;-76
2022/08/27 08:35:48;;;;;;;17.10;14.63;;;;;;;23.16;64.77;97131.31;4987588;28;20201;-76
2022/08/27 08:38:15;;;;;;;19.63;15.02;;;;;;;23.14;64.54;97134.31;4971149;28;20206;-76
2022/08/27 08:40:43;;;;;;;21.10;16.38;;;;;;;23.10;64.25;97137.94;4987129;28;20198;-76
2022/08/27 08:43:30;;;;;;;21.48;14.98;;;;;;;23.14;64.05;97142.28;4970637;28;20159;-76
2022/08/27 08:46:02;;;;;;;22.63;16.05;;;;;;;23.02;64.76;97141.44;4952384;28;20175;-76
2022/08/27 08:48:28;;;;;;;19.00;14.75;;;;;;;23.20;64.54;97137.53;4950804;28;20243;-75
2022/08/27 08:51:09;;;;;;;20.67;16.60;;;;;;;23.04;64.06;97144.53;4950678;28;20427;-75
2022/08/27 08:53:52;;;;;;;22.25;16.27;;;;;;;23.00;64.77;97141.75;4969919;28;20216;-76
2022/08/27 08:56:49;;;;;;;20.45;16.38;;;;;;;22.71;65.75;97146.06;4968617;28;20282;-76
2022/08/27 08:59:32;;;;;;;20.67;15.40;;;;;;;22.82;66.26;97149.06;4964651;28;20219;-75
2022/08/27 09:01:58;;;;;;;22.50;16.98;;;;;;;23.08;64.53;97146.25;4985265;28;20194;-76
2022/08/27 09:04:25;;;;;;;23.13;16.58;;;;;;;23.11;65.12;97156.19;4967663;28;20435;-76
2022/08/27 09:06:59;;;;;;;21.70;16.77;;;;;;;23.22;64.30;97153.94;4983861;28;20285;-76
2022/08/27 09:09:48;;;;;;;23.23;17.73;;;;;;;23.11;64.79;97158.84;4967457;28;20248;-76
2022/08/27 09:12:23;;;;;;;21.15;17.25;;;;;;;23.17;64.37;97159.44;4966702;28;20728;-76
2022/08/27 09:15:03;;;;;;;22.77;17.30;;;;;;;23.11;64.94;97156.19;4935381;28;20281;-76
2022/08/27 09:17:28;;;;;;;22.05;17.52;;;;;;;23.31;63.66;97159.16;4950942;28;20720;-76
2022/08/27 09:19:54;;;;;;;23.67;17.92;;;;;;;23.23;63.75;97166.09;4950985;28;20437;-75
2022/08/27 09:22:30;;;;;;;21.25;17.38;;;;;;;23.03;64.01;97159.69;4967043;28;20735;-77
2022/08/27 09:25:21;;;;;;;22.35;16.45;;;;;;;23.23;63.31;97173.28;4934552;28;20198;-76
2022/08/27 09:27:47;;;;;;;21.48;17.00;;;;;;;23.19;63.44;97175.84;4951198;28;20211;-76
2022/08/27 09:30:19;;;;;;;21.30;16.50;;;;;;;22.73;64.46;97167.72;4953512;28;20562;-76
2022/08/27 09:32:55;;;;;;;20.42;16.58;;;;;;;22.83;64.22;97177.19;4971144;28;20102;-77
2022/08/27 09:35:22;;;;;;;20.52;15.50;;;;;;;23.14;63.05;97173.38;4988017;28;20211;-76
2022/08/27 09:37:52;;;;;;;20.23;15.95;;;;;;;23.15;63.24;97177.56;4987816;28;20369;-76
2022/08/27 09:40:25;;;;;;;23.63;18.23;;;;;;;23.02;63.74;97182.03;4970577;28;20191;-76
2022/08/27 09:42:53;;;;;;;20.67;15.93;;;;;;;22.94;63.61;97177.56;4971333;28;20191;-76
2022/08/27 09:45:25;;;;;;;21.25;16.17;;;;;;;23.00;63.92;97177.06;4974803;28;20289;-75
2022/08/27 09:48:01;;;;;;;21.90;16.67;;;;;;;22.97;64.17;97183.00;4990732;28;20203;-77
2022/08/27 09:50:31;;;;;;;23.75;16.55;;;;;;;23.03;63.75;97172.97;5008831;28;20325;-75
2022/08/27 09:52:58;;;;;;;20.50;16.38;;;;;;;23.27;63.57;97176.84;4973736;28;20336;-75
2022/08/27 09:55:30;;;;;;;22.88;16.25;;;;;;;23.38;62.65;97162.81;4990750;28;20194;-76
2022/08/27 09:57:56;;;;;;;21.00;16.90;;;;;;;23.60;62.54;97162.78;4990605;28;20305;-76
2022/08/27 10:00:35;;;;;;;21.65;16.20;;;;;;;23.60;62.80;97163.53;4973720;28;20167;-76
2022/08/27 10:03:02;;;;;;;22.23;16.63;;;;;;;23.87;62.29;97159.50;4990450;28;20642;-76
2022/08/27 10:05:43;;;;;;;21.42;17.42;;;;;;;23.90;61.55;97163.38;4990695;28;20212;-76
2022/08/27 10:08:27;;;;;;;21.52;17.40;;;;;;;24.17;60.93;97166.50;4973740;28;20283;-76
2022/08/27 10:11:03;;;;;;;20.77;15.90;;;;;;;24.20;61.14;97163.94;4973633;28;20186;-76
2022/08/27 10:13:36;;;;;;;18.48;16.08;;;;;;;24.33;60.56;97156.72;4973580;28;20244;-76
2022/08/27 10:16:08;;;;;;;19.73;16.55;;;;;;;24.53;59.82;97168.31;4973984;28;20196;-76
2022/08/27 10:18:48;;;;;;;17.90;14.52;;;;;;;24.52;60.29;97166.75;5008979;28;20198;-75
2022/08/27 10:21:26;;;;;;;17.70;14.50;;;;;;;24.64;59.98;97164.13;5008234;28;20720;-76
2022/08/27 10:24:06;;;;;;;20.67;15.90;;;;;;;24.90;59.47;97160.28;4973669;28;20277;-76
2022/08/27 10:26:50;;;;;;;18.13;14.43;;;;;;;24.79;58.97;97170.63;4990286;28;20206;-75
2022/08/27 10:29:27;;;;;;;20.25;16.17;;;;;;;24.68;59.11;97172.22;4973791;28;20187;-76
2022/08/27 10:32:16;;;;;;;18.65;14.73;;;;;;;24.68;59.36;97169.56;5007974;28;20628;-76
2022/08/27 10:35:04;;;;;;;18.85;15.70;;;;;;;24.74;59.58;97164.75;4973479;28;20210;-76
2022/08/27 10:37:45;;;;;;;17.42;15.15;;;;;;;24.79;59.41;97167.94;4990017;28;20252;-75
2022/08/27 10:40:10;;;;;;;15.98;13.57;;;;;;;25.27;57.46;97167.38;5007541;28;20636;-76
2022/08/27 10:42:41;;;;;;;17.70;14.55;;;;;;;25.32;57.93;97164.47;4973082;28;20264;-76
2022/08/27 10:45:35;;;;;;;17.40;14.80;;;;;;;25.00;57.83;97165.13;4953164;28;20314;-76
2022/08/27 10:48:08;;;;;;;16.50;14.25;;;;;;;24.82;58.05;97164.63;4987956;28;20263;-76
2022/08/27 10:50:54;;;;;;;17.67;13.73;;;;;;;25.34;57.37;97159.56;4952981;28;20196;-75
2022/08/27 10:54:13;;;;;;;15.65;13.23;;;;;;;25.47;56.94;97169.03;4969865;28;20180;-76
2022/08/27 10:57:11;;;;;;;14.30;12.43;;;;;;;25.78;54.48;97160.28;4925472;28;20364;-76
2022/08/27 11:00:09;;;;;;;13.60;11.80;;;;;;;25.65;54.79;97158.03;4905020;28;20242;-77
2022/08/27 11:02:54;;;;;;;14.40;12.27;;;;;;;25.53;55.23;97170.34;4909069;28;20365;-75
2022/08/27 11:05:26;;;;;;;15.55;13.48;;;;;;;25.45;55.86;97165.94;4909251;28;20206;-76
2022/08/27 11:08:06;;;;;;;13.32;11.57;;;;;;;25.34;55.95;97156.88;4909093;28;20445;-76
2022/08/27 11:10:35;;;;;;;13.73;11.82;;;;;;;25.27;57.14;97156.72;4908866;28;20189;-76
2022/08/27 11:13:22;;;;;;;99.55;18.27;;;;;;;25.07;58.34;97158.44;4892564;28;20254;-76
2022/08/27 11:15:48;;;;;;;13.05;11.65;;;;;;;25.31;56.49;97163.69;4925067;28;20343;-76
2022/08/27 11:18:18;;;;;;;13.02;11.68;;;;;;;25.34;56.30;97156.88;4908826;28;20214;-76
2022/08/27 11:21:03;;;;;;;12.70;11.32;;;;;;;25.31;56.45;97162.91;4892335;28;20281;-75
2022/08/27 11:23:40;;;;;;;14.35;12.85;;;;;;;25.22;56.38;97161.16;4892778;28;20332;-76
2022/08/27 11:26:06;;;;;;;14.35;11.90;;;;;;;25.42;55.02;97159.38;4892636;28;20231;-75
2022/08/27 11:28:37;;;;;;;14.23;12.35;;;;;;;25.21;56.20;97156.16;4948780;28;20326;-76
2022/08/27 11:31:08;;;;;;;15.35;11.95;;;;;;;25.21;56.68;97161.50;4969095;28;20675;-76
2022/08/27 11:33:33;;;;;;;11.95;10.68;;;;;;;25.55;55.98;97151.31;4952668;28;20226;-76
2022/08/27 11:36:28;;;;;;;13.18;11.43;;;;;;;25.45;56.35;97155.28;4968937;28;20661;-76
2022/08/27 11:39:03;;;;;;;13.10;11.70;;;;;;;25.71;56.43;97148.69;4956242;28;20231;-75
2022/08/27 11:41:51;;;;;;;12.55;11.27;;;;;;;25.78;56.43;97154.19;4986857;28;20219;-76
2022/08/27 11:44:22;;;;;;;13.23;11.57;;;;;;;25.92;55.72;97154.50;4952665;28;20206;-76
2022/08/27 11:46:50;;;;;;;12.88;11.52;;;;;;;26.16;53.95;97158.13;4935921;28;20195;-76
2022/08/27 11:50:01;;;;;;;13.25;11.88;;;;;;;25.92;55.70;97154.50;4952138;28;20093;-76
2022/08/27 11:52:41;;;;;;;13.27;11.30;;;;;;;25.90;55.59;97155.97;4910251;28;20818;-76